sensor_id;sensor_type;location;lat;lon;timestamp;temperature;humidity
23053;DHT22;11694;-36.632;-64.318;2022-11-24T00:01:10;22.70;93.30
23053;DHT22;11694;-36.632;-64.318;2022-11-24T00:03:38;22.60;97.40
23053;DHT22;11694;-36.632;-64.318;2022-11-24T00:06:14;22.50;99.80
23053;DHT22;11694;-36.632;-64.318;2022-11-24T00:08:43;22.30;99.90
23053;DHT22;11694;-36.632;-64.318;2022-11-24T00:11:20;22.30;99.90
23053;DHT22;11694;-36.632;-64.318;2022-11-24T00:13:48;22.40;99.90
23053;DHT22;11694;-36.632;-64.318;2022-11-24T00:16:18;22.20;99.90
23053;DHT22;11694;-36.632;-64.318;2022-11-24T00:18:47;22.10;99.90
23053;DHT22;11694;-36.632;-64.318;2022-11-24T00:21:17;22.10;99.90
23053;DHT22;11694;-36.632;-64.318;2022-11-24T00:23:45;22.10;99.90
23053;DHT22;11694;-36.632;-64.318;2022-11-24T00:26:13;22.00;99.90
23053;DHT22;11694;-36.632;-64.318;2022-11-24T00:28:42;22.10;99.90
23053;DHT22;11694;-36.632;-64.318;2022-11-24T00:33:54;21.90;99.90
23053;DHT22;11694;-36.632;-64.318;2022-11-24T00:36:23;21.70;99.90
23053;DHT22;11694;-36.632;-64.318;2022-11-24T00:38:58;21.60;99.90
23053;DHT22;11694;-36.632;-64.318;2022-11-24T00:41:26;21.30;99.90
23053;DHT22;11694;-36.632;-64.318;2022-11-24T00:43:57;21.10;99.90
23053;DHT22;11694;-36.632;-64.318;2022-11-24T00:46:25;21.10;99.90
23053;DHT22;11694;-36.632;-64.318;2022-11-24T00:48:53;21.30;99.90
23053;DHT22;11694;-36.632;-64.318;2022-11-24T00:51:23;21.40;99.90
23053;DHT22;11694;-36.632;-64.318;2022-11-24T00:53:52;21.40;99.90
23053;DHT22;11694;-36.632;-64.318;2022-11-24T00:56:21;21.40;99.90
23053;DHT22;11694;-36.632;-64.318;2022-11-24T00:58:48;21.30;99.90
23053;DHT22;11694;-36.632;-64.318;2022-11-24T01:01:21;21.20;99.90
23053;DHT22;11694;-36.632;-64.318;2022-11-24T01:03:48;21.10;99.90
23053;DHT22;11694;-36.632;-64.318;2022-11-24T01:06:24;21.10;99.90
23053;DHT22;11694;-36.632;-64.318;2022-11-24T01:08:55;21.00;99.90
23053;DHT22;11694;-36.632;-64.318;2022-11-24T01:11:27;20.90;99.90
23053;DHT22;11694;-36.632;-64.318;2022-11-24T01:13:57;20.90;99.90
23053;DHT22;11694;-36.632;-64.318;2022-11-24T01:18:54;20.60;99.90
23053;DHT22;11694;-36.632;-64.318;2022-11-24T01:21:21;20.40;99.90
23053;DHT22;11694;-36.632;-64.318;2022-11-24T01:23:49;20.30;99.90
23053;DHT22;11694;-36.632;-64.318;2022-11-24T01:26:19;20.30;99.90
23053;DHT22;11694;-36.632;-64.318;2022-11-24T01:28:46;20.30;99.90
23053;DHT22;11694;-36.632;-64.318;2022-11-24T01:31:14;20.40;99.90
23053;DHT22;11694;-36.632;-64.318;2022-11-24T01:33:42;20.20;99.90
23053;DHT22;11694;-36.632;-64.318;2022-11-24T01:36:09;20.20;99.90
23053;DHT22;11694;-36.632;-64.318;2022-11-24T01:38:36;20.20;99.90
23053;DHT22;11694;-36.632;-64.318;2022-11-24T01:43:33;20.20;99.90
23053;DHT22;11694;-36.632;-64.318;2022-11-24T01:46:14;20.10;99.90
23053;DHT22;11694;-36.632;-64.318;2022-11-24T01:48:51;19.90;99.90
23053;DHT22;11694;-36.632;-64.318;2022-11-24T01:51:24;19.70;99.90
23053;DHT22;11694;-36.632;-64.318;2022-11-24T01:54:04;19.70;99.90
23053;DHT22;11694;-36.632;-64.318;2022-11-24T01:56:35;19.60;99.90
23053;DHT22;11694;-36.632;-64.318;2022-11-24T01:59:05;19.70;99.90
23053;DHT22;11694;-36.632;-64.318;2022-11-24T02:01:33;19.60;99.90
23053;DHT22;11694;-36.632;-64.318;2022-11-24T02:04:06;19.70;99.90
23053;DHT22;11694;-36.632;-64.318;2022-11-24T02:06:36;19.40;99.90
23053;DHT22;11694;-36.632;-64.318;2022-11-24T02:09:23;19.20;99.90
23053;DHT22;11694;-36.632;-64.318;2022-11-24T02:11:52;19.30;99.90
23053;DHT22;11694;-36.632;-64.318;2022-11-24T02:14:21;19.20;99.90
23053;DHT22;11694;-36.632;-64.318;2022-11-24T02:16:50;19.10;99.90
23053;DHT22;11694;-36.632;-64.318;2022-11-24T02:21:58;19.20;99.90
23053;DHT22;11694;-36.632;-64.318;2022-11-24T02:24:31;19.20;99.90
23053;DHT22;11694;-36.632;-64.318;2022-11-24T02:27:02;19.10;99.90
23053;DHT22;11694;-36.632;-64.318;2022-11-24T02:29:31;19.00;99.90
23053;DHT22;11694;-36.632;-64.318;2022-11-24T02:32:00;18.90;99.90
23053;DHT22;11694;-36.632;-64.318;2022-11-24T02:34:29;18.90;99.90
23053;DHT22;11694;-36.632;-64.318;2022-11-24T02:36:56;19.00;99.90
23053;DHT22;11694;-36.632;-64.318;2022-11-24T02:39:24;18.90;99.90
23053;DHT22;11694;-36.632;-64.318;2022-11-24T02:41:57;18.80;99.90
23053;DHT22;11694;-36.632;-64.318;2022-11-24T02:44:29;18.80;99.90
23053;DHT22;11694;-36.632;-64.318;2022-11-24T02:47:08;18.60;99.90
23053;DHT22;11694;-36.632;-64.318;2022-11-24T02:49:36;18.60;99.90
23053;DHT22;11694;-36.632;-64.318;2022-11-24T02:52:04;18.60;99.90
23053;DHT22;11694;-36.632;-64.318;2022-11-24T02:54:31;18.60;99.90
23053;DHT22;11694;-36.632;-64.318;2022-11-24T02:56:59;18.50;99.90
23053;DHT22;11694;-36.632;-64.318;2022-11-24T02:59:26;18.40;99.90
23053;DHT22;11694;-36.632;-64.318;2022-11-24T03:01:53;18.40;99.90
23053;DHT22;11694;-36.632;-64.318;2022-11-24T03:04:20;18.40;99.90
23053;DHT22;11694;-36.632;-64.318;2022-11-24T03:06:47;18.40;99.90
23053;DHT22;11694;-36.632;-64.318;2022-11-24T03:09:15;18.30;99.90
23053;DHT22;11694;-36.632;-64.318;2022-11-24T03:11:42;18.40;99.90
23053;DHT22;11694;-36.632;-64.318;2022-11-24T03:14:09;18.40;99.90
23053;DHT22;11694;-36.632;-64.318;2022-11-24T03:16:36;18.30;99.90
23053;DHT22;11694;-36.632;-64.318;2022-11-24T03:19:03;18.20;99.90
23053;DHT22;11694;-36.632;-64.318;2022-11-24T03:21:31;18.10;99.90
23053;DHT22;11694;-36.632;-64.318;2022-11-24T03:23:58;18.20;99.90
23053;DHT22;11694;-36.632;-64.318;2022-11-24T03:26:25;18.20;99.90
23053;DHT22;11694;-36.632;-64.318;2022-11-24T03:28:54;18.30;99.90
23053;DHT22;11694;-36.632;-64.318;2022-11-24T03:31:23;18.30;99.90
23053;DHT22;11694;-36.632;-64.318;2022-11-24T03:33:50;18.20;99.90
23053;DHT22;11694;-36.632;-64.318;2022-11-24T03:36:17;18.20;99.90
23053;DHT22;11694;-36.632;-64.318;2022-11-24T03:38:45;18.10;99.90
23053;DHT22;11694;-36.632;-64.318;2022-11-24T03:41:12;18.10;99.90
23053;DHT22;11694;-36.632;-64.318;2022-11-24T03:43:39;18.00;99.90
23053;DHT22;11694;-36.632;-64.318;2022-11-24T03:46:06;18.10;99.90
23053;DHT22;11694;-36.632;-64.318;2022-11-24T03:48:34;18.40;99.90
23053;DHT22;11694;-36.632;-64.318;2022-11-24T03:51:01;18.60;99.90
23053;DHT22;11694;-36.632;-64.318;2022-11-24T03:53:30;18.50;99.90
23053;DHT22;11694;-36.632;-64.318;2022-11-24T03:55:59;18.50;99.90
23053;DHT22;11694;-36.632;-64.318;2022-11-24T03:58:27;18.50;99.90
23053;DHT22;11694;-36.632;-64.318;2022-11-24T04:00:55;18.40;99.90
23053;DHT22;11694;-36.632;-64.318;2022-11-24T04:03:23;18.50;99.90
23053;DHT22;11694;-36.632;-64.318;2022-11-24T04:05:50;18.60;99.90
23053;DHT22;11694;-36.632;-64.318;2022-11-24T04:08:18;18.90;99.90
23053;DHT22;11694;-36.632;-64.318;2022-11-24T04:10:49;18.70;99.90
23053;DHT22;11694;-36.632;-64.318;2022-11-24T04:13:19;18.60;99.90
23053;DHT22;11694;-36.632;-64.318;2022-11-24T04:15:46;18.60;99.90
23053;DHT22;11694;-36.632;-64.318;2022-11-24T04:18:14;18.60;99.90
23053;DHT22;11694;-36.632;-64.318;2022-11-24T04:20:41;18.40;99.90
23053;DHT22;11694;-36.632;-64.318;2022-11-24T04:23:09;18.40;99.90
23053;DHT22;11694;-36.632;-64.318;2022-11-24T04:25:36;18.40;99.90
23053;DHT22;11694;-36.632;-64.318;2022-11-24T04:28:04;18.20;99.90
23053;DHT22;11694;-36.632;-64.318;2022-11-24T04:30:31;18.20;99.90
23053;DHT22;11694;-36.632;-64.318;2022-11-24T04:32:58;18.10;99.90
23053;DHT22;11694;-36.632;-64.318;2022-11-24T04:35:25;18.20;99.90
23053;DHT22;11694;-36.632;-64.318;2022-11-24T04:37:52;18.20;99.90
23053;DHT22;11694;-36.632;-64.318;2022-11-24T04:40:20;18.30;99.90
23053;DHT22;11694;-36.632;-64.318;2022-11-24T04:42:54;18.40;99.90
23053;DHT22;11694;-36.632;-64.318;2022-11-24T04:45:22;18.30;99.90
23053;DHT22;11694;-36.632;-64.318;2022-11-24T04:47:50;18.10;99.90
23053;DHT22;11694;-36.632;-64.318;2022-11-24T04:50:17;18.10;99.90
23053;DHT22;11694;-36.632;-64.318;2022-11-24T04:52:44;18.20;99.90
23053;DHT22;11694;-36.632;-64.318;2022-11-24T04:55:11;18.20;99.90
23053;DHT22;11694;-36.632;-64.318;2022-11-24T04:57:38;18.20;99.90
23053;DHT22;11694;-36.632;-64.318;2022-11-24T05:00:06;18.30;99.90
23053;DHT22;11694;-36.632;-64.318;2022-11-24T05:02:33;18.10;99.90
23053;DHT22;11694;-36.632;-64.318;2022-11-24T05:05:00;18.00;99.90
23053;DHT22;11694;-36.632;-64.318;2022-11-24T05:07:27;17.90;99.90
23053;DHT22;11694;-36.632;-64.318;2022-11-24T05:09:55;17.90;99.90
23053;DHT22;11694;-36.632;-64.318;2022-11-24T05:12:40;17.80;99.90
23053;DHT22;11694;-36.632;-64.318;2022-11-24T05:15:07;17.60;99.90
23053;DHT22;11694;-36.632;-64.318;2022-11-24T05:17:37;17.70;99.90
23053;DHT22;11694;-36.632;-64.318;2022-11-24T05:20:05;17.70;99.90
23053;DHT22;11694;-36.632;-64.318;2022-11-24T05:22:32;17.90;99.90
23053;DHT22;11694;-36.632;-64.318;2022-11-24T05:24:59;18.00;99.90
23053;DHT22;11694;-36.632;-64.318;2022-11-24T05:27:27;18.10;99.90
23053;DHT22;11694;-36.632;-64.318;2022-11-24T05:29:54;18.00;99.90
23053;DHT22;11694;-36.632;-64.318;2022-11-24T05:32:21;17.90;99.90
23053;DHT22;11694;-36.632;-64.318;2022-11-24T05:34:48;17.70;99.90
23053;DHT22;11694;-36.632;-64.318;2022-11-24T05:37:15;17.70;99.90
23053;DHT22;11694;-36.632;-64.318;2022-11-24T05:39:43;17.80;99.90
23053;DHT22;11694;-36.632;-64.318;2022-11-24T05:42:10;17.70;99.90
23053;DHT22;11694;-36.632;-64.318;2022-11-24T05:44:55;17.70;99.90
23053;DHT22;11694;-36.632;-64.318;2022-11-24T05:47:23;17.50;99.90
23053;DHT22;11694;-36.632;-64.318;2022-11-24T05:49:51;17.40;99.90
23053;DHT22;11694;-36.632;-64.318;2022-11-24T05:52:18;17.30;99.90
23053;DHT22;11694;-36.632;-64.318;2022-11-24T05:54:45;17.30;99.90
23053;DHT22;11694;-36.632;-64.318;2022-11-24T05:57:12;17.20;99.90
23053;DHT22;11694;-36.632;-64.318;2022-11-24T05:59:39;17.20;99.90
23053;DHT22;11694;-36.632;-64.318;2022-11-24T06:02:06;17.10;99.90
23053;DHT22;11694;-36.632;-64.318;2022-11-24T06:04:34;16.90;99.90
23053;DHT22;11694;-36.632;-64.318;2022-11-24T06:07:01;16.80;99.90
23053;DHT22;11694;-36.632;-64.318;2022-11-24T06:09:28;16.60;99.90
23053;DHT22;11694;-36.632;-64.318;2022-11-24T06:11:55;16.60;99.90
23053;DHT22;11694;-36.632;-64.318;2022-11-24T06:14:22;16.70;99.90
23053;DHT22;11694;-36.632;-64.318;2022-11-24T06:16:49;16.70;99.90
23053;DHT22;11694;-36.632;-64.318;2022-11-24T06:19:16;16.80;99.90
23053;DHT22;11694;-36.632;-64.318;2022-11-24T06:21:43;16.80;99.90
23053;DHT22;11694;-36.632;-64.318;2022-11-24T06:24:10;16.70;99.90
23053;DHT22;11694;-36.632;-64.318;2022-11-24T06:26:37;16.60;99.90
23053;DHT22;11694;-36.632;-64.318;2022-11-24T06:29:04;16.50;99.90
23053;DHT22;11694;-36.632;-64.318;2022-11-24T06:31:32;16.40;99.90
23053;DHT22;11694;-36.632;-64.318;2022-11-24T06:33:59;16.30;99.90
23053;DHT22;11694;-36.632;-64.318;2022-11-24T06:36:26;16.40;99.90
23053;DHT22;11694;-36.632;-64.318;2022-11-24T06:38:53;16.50;99.90
23053;DHT22;11694;-36.632;-64.318;2022-11-24T06:41:20;16.50;99.90
23053;DHT22;11694;-36.632;-64.318;2022-11-24T06:43:49;16.60;99.90
23053;DHT22;11694;-36.632;-64.318;2022-11-24T06:46:16;16.60;99.90
23053;DHT22;11694;-36.632;-64.318;2022-11-24T06:48:43;16.40;99.90
23053;DHT22;11694;-36.632;-64.318;2022-11-24T06:51:11;16.40;99.90
23053;DHT22;11694;-36.632;-64.318;2022-11-24T06:53:39;16.40;99.90
23053;DHT22;11694;-36.632;-64.318;2022-11-24T06:56:09;16.30;99.90
23053;DHT22;11694;-36.632;-64.318;2022-11-24T06:58:42;16.40;99.90
23053;DHT22;11694;-36.632;-64.318;2022-11-24T07:01:14;16.40;99.90
23053;DHT22;11694;-36.632;-64.318;2022-11-24T07:03:41;16.50;99.90
23053;DHT22;11694;-36.632;-64.318;2022-11-24T07:06:08;16.70;99.90
23053;DHT22;11694;-36.632;-64.318;2022-11-24T07:08:36;17.30;99.90
23053;DHT22;11694;-36.632;-64.318;2022-11-24T07:11:07;17.60;99.90
23053;DHT22;11694;-36.632;-64.318;2022-11-24T07:13:34;18.10;99.90
23053;DHT22;11694;-36.632;-64.318;2022-11-24T07:18:46;18.60;99.90
23053;DHT22;11694;-36.632;-64.318;2022-11-24T07:21:13;18.90;99.90
23053;DHT22;11694;-36.632;-64.318;2022-11-24T07:23:41;19.10;94.70
23053;DHT22;11694;-36.632;-64.318;2022-11-24T07:26:09;19.40;73.90
23053;DHT22;11694;-36.632;-64.318;2022-11-24T07:28:37;19.50;63.70
23053;DHT22;11694;-36.632;-64.318;2022-11-24T07:31:09;19.60;53.10
23053;DHT22;11694;-36.632;-64.318;2022-11-24T07:33:37;19.60;47.90
23053;DHT22;11694;-36.632;-64.318;2022-11-24T07:36:05;19.60;31.10
23053;DHT22;11694;-36.632;-64.318;2022-11-24T07:38:33;19.80;24.70
23053;DHT22;11694;-36.632;-64.318;2022-11-24T07:41:06;19.90;16.80
23053;DHT22;11694;-36.632;-64.318;2022-11-24T07:43:35;20.00;9.30
23053;DHT22;11694;-36.632;-64.318;2022-11-24T07:46:04;20.20;1.50
23053;DHT22;11694;-36.632;-64.318;2022-11-24T07:48:32;20.30;1.00
23053;DHT22;11694;-36.632;-64.318;2022-11-24T07:51:00;20.50;1.00
23053;DHT22;11694;-36.632;-64.318;2022-11-24T07:53:27;20.60;1.00
23053;DHT22;11694;-36.632;-64.318;2022-11-24T07:55:59;20.60;1.00
23053;DHT22;11694;-36.632;-64.318;2022-11-24T07:58:27;20.50;1.00
23053;DHT22;11694;-36.632;-64.318;2022-11-24T08:00:55;20.50;1.00
23053;DHT22;11694;-36.632;-64.318;2022-11-24T08:03:22;20.50;1.00
23053;DHT22;11694;-36.632;-64.318;2022-11-24T08:05:57;20.30;1.00
23053;DHT22;11694;-36.632;-64.318;2022-11-24T08:08:25;20.40;1.00
23053;DHT22;11694;-36.632;-64.318;2022-11-24T08:10:52;20.50;1.00
23053;DHT22;11694;-36.632;-64.318;2022-11-24T08:13:19;20.70;1.00
23053;DHT22;11694;-36.632;-64.318;2022-11-24T08:15:46;20.90;1.00
23053;DHT22;11694;-36.632;-64.318;2022-11-24T08:18:13;21.00;1.00
23053;DHT22;11694;-36.632;-64.318;2022-11-24T08:20:40;21.20;1.00
23053;DHT22;11694;-36.632;-64.318;2022-11-24T08:23:08;21.30;1.00
23053;DHT22;11694;-36.632;-64.318;2022-11-24T08:25:35;21.20;1.00
23053;DHT22;11694;-36.632;-64.318;2022-11-24T08:28:03;21.20;1.00
23053;DHT22;11694;-36.632;-64.318;2022-11-24T08:30:30;21.20;1.00
23053;DHT22;11694;-36.632;-64.318;2022-11-24T08:33:01;21.20;1.00
23053;DHT22;11694;-36.632;-64.318;2022-11-24T08:35:28;21.30;1.00
23053;DHT22;11694;-36.632;-64.318;2022-11-24T08:37:55;21.40;1.00
23053;DHT22;11694;-36.632;-64.318;2022-11-24T08:40:22;21.40;1.00
23053;DHT22;11694;-36.632;-64.318;2022-11-24T08:42:49;21.40;1.00
23053;DHT22;11694;-36.632;-64.318;2022-11-24T08:45:16;21.30;1.00
23053;DHT22;11694;-36.632;-64.318;2022-11-24T08:47:43;21.20;1.00
23053;DHT22;11694;-36.632;-64.318;2022-11-24T08:50:10;21.00;1.00
23053;DHT22;11694;-36.632;-64.318;2022-11-24T08:52:37;20.60;1.00
23053;DHT22;11694;-36.632;-64.318;2022-11-24T08:55:05;20.70;1.00
23053;DHT22;11694;-36.632;-64.318;2022-11-24T08:57:32;20.40;1.00
23053;DHT22;11694;-36.632;-64.318;2022-11-24T08:59:59;20.00;5.40
23053;DHT22;11694;-36.632;-64.318;2022-11-24T09:02:26;19.70;7.90
23053;DHT22;11694;-36.632;-64.318;2022-11-24T09:04:53;19.50;26.00
23053;DHT22;11694;-36.632;-64.318;2022-11-24T09:07:20;19.30;47.00
23053;DHT22;11694;-36.632;-64.318;2022-11-24T09:09:47;19.10;58.80
23053;DHT22;11694;-36.632;-64.318;2022-11-24T09:12:14;19.00;79.90
23053;DHT22;11694;-36.632;-64.318;2022-11-24T09:14:42;18.60;93.10
23053;DHT22;11694;-36.632;-64.318;2022-11-24T09:17:09;18.40;98.50
23053;DHT22;11694;-36.632;-64.318;2022-11-24T09:19:36;18.20;99.90
23053;DHT22;11694;-36.632;-64.318;2022-11-24T09:22:03;18.20;89.70
23053;DHT22;11694;-36.632;-64.318;2022-11-24T09:24:30;18.50;75.90
23053;DHT22;11694;-36.632;-64.318;2022-11-24T09:26:57;18.70;74.70
23053;DHT22;11694;-36.632;-64.318;2022-11-24T09:29:24;18.90;56.10
23053;DHT22;11694;-36.632;-64.318;2022-11-24T09:31:51;19.30;41.80
23053;DHT22;11694;-36.632;-64.318;2022-11-24T09:34:18;19.70;13.90
23053;DHT22;11694;-36.632;-64.318;2022-11-24T09:36:46;20.20;1.20
23053;DHT22;11694;-36.632;-64.318;2022-11-24T09:39:13;20.50;1.00
23053;DHT22;11694;-36.632;-64.318;2022-11-24T09:42:04;20.60;1.00
23053;DHT22;11694;-36.632;-64.318;2022-11-24T09:50:09;21.60;1.00
23053;DHT22;11694;-36.632;-64.318;2022-11-24T10:00:39;22.60;1.00
23053;DHT22;11694;-36.632;-64.318;2022-11-24T10:03:18;23.00;99.90
23053;DHT22;11694;-36.632;-64.318;2022-11-24T10:05:48;23.30;99.90
23053;DHT22;11694;-36.632;-64.318;2022-11-24T10:10:58;23.50;99.90
23053;DHT22;11694;-36.632;-64.318;2022-11-24T10:16:33;22.50;99.90
23053;DHT22;11694;-36.632;-64.318;2022-11-24T10:27:18;23.10;99.90
23053;DHT22;11694;-36.632;-64.318;2022-11-24T10:29:49;23.20;99.90
23053;DHT22;11694;-36.632;-64.318;2022-11-24T10:32:39;22.90;99.90
23053;DHT22;11694;-36.632;-64.318;2022-11-24T10:35:45;22.70;99.90
23053;DHT22;11694;-36.632;-64.318;2022-11-24T10:38:34;22.50;99.90
23053;DHT22;11694;-36.632;-64.318;2022-11-24T10:41:07;22.50;99.90
23053;DHT22;11694;-36.632;-64.318;2022-11-24T10:43:39;22.50;99.90
23053;DHT22;11694;-36.632;-64.318;2022-11-24T10:46:27;22.50;1.00
23053;DHT22;11694;-36.632;-64.318;2022-11-24T10:49:03;22.50;1.00
23053;DHT22;11694;-36.632;-64.318;2022-11-24T10:54:21;22.70;1.00
23053;DHT22;11694;-36.632;-64.318;2022-11-24T10:56:54;22.80;99.90
23053;DHT22;11694;-36.632;-64.318;2022-11-24T10:59:29;22.90;99.90
23053;DHT22;11694;-36.632;-64.318;2022-11-24T11:01:58;23.10;99.90
23053;DHT22;11694;-36.632;-64.318;2022-11-24T11:04:32;23.20;99.90
23053;DHT22;11694;-36.632;-64.318;2022-11-24T11:07:21;23.20;99.90
23053;DHT22;11694;-36.632;-64.318;2022-11-24T11:10:09;23.30;99.90
23053;DHT22;11694;-36.632;-64.318;2022-11-24T11:12:37;23.40;99.90
23053;DHT22;11694;-36.632;-64.318;2022-11-24T11:15:39;23.50;99.90
23053;DHT22;11694;-36.632;-64.318;2022-11-24T11:18:15;23.80;99.90
23053;DHT22;11694;-36.632;-64.318;2022-11-24T11:20:53;24.10;99.90
23053;DHT22;11694;-36.632;-64.318;2022-11-24T11:23:32;24.40;99.90
23053;DHT22;11694;-36.632;-64.318;2022-11-24T11:31:25;25.80;99.90
23053;DHT22;11694;-36.632;-64.318;2022-11-24T11:34:14;26.20;99.90
23053;DHT22;11694;-36.632;-64.318;2022-11-24T11:36:48;26.50;99.90
23053;DHT22;11694;-36.632;-64.318;2022-11-24T11:39:24;26.70;99.90
23053;DHT22;11694;-36.632;-64.318;2022-11-24T11:50:50;27.70;99.90
23053;DHT22;11694;-36.632;-64.318;2022-11-24T11:58:54;27.80;99.90
23053;DHT22;11694;-36.632;-64.318;2022-11-24T12:01:48;27.80;99.90
23053;DHT22;11694;-36.632;-64.318;2022-11-24T12:13:09;28.60;99.90
23053;DHT22;11694;-36.632;-64.318;2022-11-24T12:21:18;28.60;99.90
23053;DHT22;11694;-36.632;-64.318;2022-11-24T12:26:33;29.10;99.90
23053;DHT22;11694;-36.632;-64.318;2022-11-24T12:29:20;29.20;99.50
23053;DHT22;11694;-36.632;-64.318;2022-11-24T12:40:16;29.60;99.90
23053;DHT22;11694;-36.632;-64.318;2022-11-24T12:42:56;29.90;91.90
23053;DHT22;11694;-36.632;-64.318;2022-11-24T12:45:32;29.70;62.30
23053;DHT22;11694;-36.632;-64.318;2022-11-24T12:48:26;29.50;78.30
23053;DHT22;11694;-36.632;-64.318;2022-11-24T12:50:56;29.60;99.90
23053;DHT22;11694;-36.632;-64.318;2022-11-24T12:53:27;30.10;96.10
23053;DHT22;11694;-36.632;-64.318;2022-11-24T12:56:04;30.20;70.70
23053;DHT22;11694;-36.632;-64.318;2022-11-24T12:58:40;30.20;84.40
23053;DHT22;11694;-36.632;-64.318;2022-11-24T13:01:29;30.50;85.30
23053;DHT22;11694;-36.632;-64.318;2022-11-24T13:04:03;30.50;72.30
23053;DHT22;11694;-36.632;-64.318;2022-11-24T13:06:48;30.40;74.90
23053;DHT22;11694;-36.632;-64.318;2022-11-24T13:09:17;30.70;97.50
23053;DHT22;11694;-36.632;-64.318;2022-11-24T13:11:46;31.30;71.80
23053;DHT22;11694;-36.632;-64.318;2022-11-24T13:16:55;31.00;78.10
23053;DHT22;11694;-36.632;-64.318;2022-11-24T13:19:25;30.80;66.40
23053;DHT22;11694;-36.632;-64.318;2022-11-24T13:24:32;31.10;53.40
23053;DHT22;11694;-36.632;-64.318;2022-11-24T13:29:45;31.20;57.10
23053;DHT22;11694;-36.632;-64.318;2022-11-24T13:45:46;31.40;28.10
23053;DHT22;11694;-36.632;-64.318;2022-11-24T13:58:39;31.80;29.90
23053;DHT22;11694;-36.632;-64.318;2022-11-24T14:01:16;31.80;16.50
23053;DHT22;11694;-36.632;-64.318;2022-11-24T14:03:57;31.70;27.30
23053;DHT22;11694;-36.632;-64.318;2022-11-24T14:06:35;31.70;24.80
23053;DHT22;11694;-36.632;-64.318;2022-11-24T14:09:25;31.50;31.90
23053;DHT22;11694;-36.632;-64.318;2022-11-24T14:11:59;31.30;29.50
23053;DHT22;11694;-36.632;-64.318;2022-11-24T14:14:27;31.20;31.40
23053;DHT22;11694;-36.632;-64.318;2022-11-24T14:17:09;31.60;64.00
23053;DHT22;11694;-36.632;-64.318;2022-11-24T14:19:44;31.90;25.90
23053;DHT22;11694;-36.632;-64.318;2022-11-24T14:24:57;31.50;17.90
23053;DHT22;11694;-36.632;-64.318;2022-11-24T14:27:36;31.40;28.20
23053;DHT22;11694;-36.632;-64.318;2022-11-24T14:32:33;31.70;17.70
23053;DHT22;11694;-36.632;-64.318;2022-11-24T14:35:24;31.50;39.60
23053;DHT22;11694;-36.632;-64.318;2022-11-24T14:37:53;32.00;28.40
23053;DHT22;11694;-36.632;-64.318;2022-11-24T14:40:50;31.90;40.70
23053;DHT22;11694;-36.632;-64.318;2022-11-24T14:43:32;31.90;45.70
23053;DHT22;11694;-36.632;-64.318;2022-11-24T14:46:16;31.90;35.40
23053;DHT22;11694;-36.632;-64.318;2022-11-24T14:48:51;31.70;38.80
23053;DHT22;11694;-36.632;-64.318;2022-11-24T14:51:36;31.60;42.80
23053;DHT22;11694;-36.632;-64.318;2022-11-24T14:54:16;31.80;36.80
23053;DHT22;11694;-36.632;-64.318;2022-11-24T14:57:20;31.70;23.60
23053;DHT22;11694;-36.632;-64.318;2022-11-24T15:08:16;31.40;35.00
23053;DHT22;11694;-36.632;-64.318;2022-11-24T15:10:44;31.50;27.60
23053;DHT22;11694;-36.632;-64.318;2022-11-24T15:13:22;31.60;41.00
23053;DHT22;11694;-36.632;-64.318;2022-11-24T15:16:02;31.80;43.20
23053;DHT22;11694;-36.632;-64.318;2022-11-24T15:21:00;31.60;36.40
23053;DHT22;11694;-36.632;-64.318;2022-11-24T15:23:32;31.60;32.70
23053;DHT22;11694;-36.632;-64.318;2022-11-24T15:28:31;31.00;59.30
23053;DHT22;11694;-36.632;-64.318;2022-11-24T15:31:03;31.10;59.10
23053;DHT22;11694;-36.632;-64.318;2022-11-24T15:33:31;31.20;63.00
23053;DHT22;11694;-36.632;-64.318;2022-11-24T15:36:01;31.00;66.40
23053;DHT22;11694;-36.632;-64.318;2022-11-24T15:38:28;31.20;67.30
23053;DHT22;11694;-36.632;-64.318;2022-11-24T15:40:58;31.50;59.80
23053;DHT22;11694;-36.632;-64.318;2022-11-24T15:43:39;31.30;54.00
23053;DHT22;11694;-36.632;-64.318;2022-11-24T15:46:08;30.80;42.60
23053;DHT22;11694;-36.632;-64.318;2022-11-24T15:48:35;30.60;59.70
23053;DHT22;11694;-36.632;-64.318;2022-11-24T15:51:04;30.70;48.20
23053;DHT22;11694;-36.632;-64.318;2022-11-24T15:53:33;30.90;57.50
23053;DHT22;11694;-36.632;-64.318;2022-11-24T15:56:02;31.20;64.60
23053;DHT22;11694;-36.632;-64.318;2022-11-24T15:58:30;31.20;30.00
23053;DHT22;11694;-36.632;-64.318;2022-11-24T16:00:57;31.00;25.20
23053;DHT22;11694;-36.632;-64.318;2022-11-24T16:03:24;31.00;64.00
23053;DHT22;11694;-36.632;-64.318;2022-11-24T16:05:53;30.90;45.90
23053;DHT22;11694;-36.632;-64.318;2022-11-24T16:08:21;30.80;51.90
23053;DHT22;11694;-36.632;-64.318;2022-11-24T16:10:48;30.80;66.30
23053;DHT22;11694;-36.632;-64.318;2022-11-24T16:13:16;30.70;50.10
23053;DHT22;11694;-36.632;-64.318;2022-11-24T16:15:44;30.70;51.60
23053;DHT22;11694;-36.632;-64.318;2022-11-24T16:18:12;30.60;48.10
23053;DHT22;11694;-36.632;-64.318;2022-11-24T16:20:39;30.70;36.30
23053;DHT22;11694;-36.632;-64.318;2022-11-24T16:23:06;30.50;27.30
23053;DHT22;11694;-36.632;-64.318;2022-11-24T16:25:33;30.40;81.00
23053;DHT22;11694;-36.632;-64.318;2022-11-24T16:28:00;30.60;39.50
23053;DHT22;11694;-36.632;-64.318;2022-11-24T16:30:27;30.60;49.40
23053;DHT22;11694;-36.632;-64.318;2022-11-24T16:32:54;30.60;41.20
23053;DHT22;11694;-36.632;-64.318;2022-11-24T16:35:22;30.70;61.20
23053;DHT22;11694;-36.632;-64.318;2022-11-24T16:37:49;30.80;57.30
23053;DHT22;11694;-36.632;-64.318;2022-11-24T16:40:16;30.90;45.10
23053;DHT22;11694;-36.632;-64.318;2022-11-24T16:42:43;31.30;54.70
23053;DHT22;11694;-36.632;-64.318;2022-11-24T16:45:12;31.30;43.20
23053;DHT22;11694;-36.632;-64.318;2022-11-24T16:47:40;31.20;23.40
23053;DHT22;11694;-36.632;-64.318;2022-11-24T16:50:09;31.00;38.20
23053;DHT22;11694;-36.632;-64.318;2022-11-24T16:52:37;31.20;80.00
23053;DHT22;11694;-36.632;-64.318;2022-11-24T16:55:05;31.40;28.20
23053;DHT22;11694;-36.632;-64.318;2022-11-24T16:57:35;30.90;22.30
23053;DHT22;11694;-36.632;-64.318;2022-11-24T17:00:03;30.80;54.80
23053;DHT22;11694;-36.632;-64.318;2022-11-24T17:02:31;30.90;63.00
23053;DHT22;11694;-36.632;-64.318;2022-11-24T17:04:59;30.80;52.30
23053;DHT22;11694;-36.632;-64.318;2022-11-24T17:07:26;30.70;39.80
23053;DHT22;11694;-36.632;-64.318;2022-11-24T17:09:53;30.60;49.30
23053;DHT22;11694;-36.632;-64.318;2022-11-24T17:12:20;30.50;57.00
23053;DHT22;11694;-36.632;-64.318;2022-11-24T17:14:47;30.50;57.00
23053;DHT22;11694;-36.632;-64.318;2022-11-24T17:17:15;30.30;71.10
23053;DHT22;11694;-36.632;-64.318;2022-11-24T17:19:42;30.30;62.30
23053;DHT22;11694;-36.632;-64.318;2022-11-24T17:22:09;30.20;52.90
23053;DHT22;11694;-36.632;-64.318;2022-11-24T17:24:36;30.20;66.00
23053;DHT22;11694;-36.632;-64.318;2022-11-24T17:27:03;30.10;59.50
23053;DHT22;11694;-36.632;-64.318;2022-11-24T17:29:30;29.60;65.30